sensor_id;sensor_type;location;lat;lon;timestamp;temperature;humidity
9209;DHT22;4639;48.862;9.188;2024-02-15T00:01:04;13.00;99.90
9209;DHT22;4639;48.862;9.188;2024-02-15T00:03:31;13.00;99.90
9209;DHT22;4639;48.862;9.188;2024-02-15T00:05:57;13.00;99.90
9209;DHT22;4639;48.862;9.188;2024-02-15T00:08:23;13.00;99.90
9209;DHT22;4639;48.862;9.188;2024-02-15T00:10:49;12.90;99.90
9209;DHT22;4639;48.862;9.188;2024-02-15T00:13:15;12.90;99.90
9209;DHT22;4639;48.862;9.188;2024-02-15T00:15:40;12.90;99.90
9209;DHT22;4639;48.862;9.188;2024-02-15T00:18:06;12.80;99.90
9209;DHT22;4639;48.862;9.188;2024-02-15T00:20:32;12.80;99.90
9209;DHT22;4639;48.862;9.188;2024-02-15T00:23:00;12.80;99.90
9209;DHT22;4639;48.862;9.188;2024-02-15T00:25:26;12.80;99.90
9209;DHT22;4639;48.862;9.188;2024-02-15T00:27:52;12.80;99.90
9209;DHT22;4639;48.862;9.188;2024-02-15T00:30:17;12.80;99.90
9209;DHT22;4639;48.862;9.188;2024-02-15T00:32:43;12.80;99.90
9209;DHT22;4639;48.862;9.188;2024-02-15T00:35:10;12.90;99.90
9209;DHT22;4639;48.862;9.188;2024-02-15T00:37:36;12.90;99.90
9209;DHT22;4639;48.862;9.188;2024-02-15T00:40:02;12.90;99.90
9209;DHT22;4639;48.862;9.188;2024-02-15T00:42:29;12.90;99.90
9209;DHT22;4639;48.862;9.188;2024-02-15T00:44:57;12.90;99.90
9209;DHT22;4639;48.862;9.188;2024-02-15T00:47:22;12.80;99.90
9209;DHT22;4639;48.862;9.188;2024-02-15T00:49:48;12.80;99.90
9209;DHT22;4639;48.862;9.188;2024-02-15T00:52:15;12.90;99.90
9209;DHT22;4639;48.862;9.188;2024-02-15T00:54:41;12.80;99.90
9209;DHT22;4639;48.862;9.188;2024-02-15T00:57:07;12.80;99.90
9209;DHT22;4639;48.862;9.188;2024-02-15T00:59:32;12.80;99.90
9209;DHT22;4639;48.862;9.188;2024-02-15T01:02:01;12.80;99.90
9209;DHT22;4639;48.862;9.188;2024-02-15T01:04:27;12.80;99.90
9209;DHT22;4639;48.862;9.188;2024-02-15T01:06:53;12.70;99.90
9209;DHT22;4639;48.862;9.188;2024-02-15T01:09:18;12.70;99.90
9209;DHT22;4639;48.862;9.188;2024-02-15T01:11:44;12.70;99.90
9209;DHT22;4639;48.862;9.188;2024-02-15T01:14:10;12.60;99.90
9209;DHT22;4639;48.862;9.188;2024-02-15T01:16:36;12.60;99.90
9209;DHT22;4639;48.862;9.188;2024-02-15T01:19:02;12.60;99.90
9209;DHT22;4639;48.862;9.188;2024-02-15T01:21:28;12.60;99.90
9209;DHT22;4639;48.862;9.188;2024-02-15T01:23:53;12.60;99.90
9209;DHT22;4639;48.862;9.188;2024-02-15T01:26:19;12.70;99.90
9209;DHT22;4639;48.862;9.188;2024-02-15T01:28:45;12.60;99.90
9209;DHT22;4639;48.862;9.188;2024-02-15T01:31:11;12.60;99.90
9209;DHT22;4639;48.862;9.188;2024-02-15T01:33:38;12.60;99.90
9209;DHT22;4639;48.862;9.188;2024-02-15T01:36:06;12.50;99.90
9209;DHT22;4639;48.862;9.188;2024-02-15T01:38:32;12.50;99.90
9209;DHT22;4639;48.862;9.188;2024-02-15T01:40:57;12.40;99.90
9209;DHT22;4639;48.862;9.188;2024-02-15T01:43:23;12.40;99.90
9209;DHT22;4639;48.862;9.188;2024-02-15T01:45:49;12.50;99.90
9209;DHT22;4639;48.862;9.188;2024-02-15T01:48:15;12.40;99.90
9209;DHT22;4639;48.862;9.188;2024-02-15T01:50:41;12.40;99.90
9209;DHT22;4639;48.862;9.188;2024-02-15T01:53:08;12.30;99.90
9209;DHT22;4639;48.862;9.188;2024-02-15T01:55:35;12.20;99.90
9209;DHT22;4639;48.862;9.188;2024-02-15T01:58:01;12.10;99.90
9209;DHT22;4639;48.862;9.188;2024-02-15T02:00:27;12.10;99.90
9209;DHT22;4639;48.862;9.188;2024-02-15T02:02:54;12.00;99.90
9209;DHT22;4639;48.862;9.188;2024-02-15T02:05:26;11.90;99.90
9209;DHT22;4639;48.862;9.188;2024-02-15T02:07:52;11.90;99.90
9209;DHT22;4639;48.862;9.188;2024-02-15T02:10:18;11.80;99.90
9209;DHT22;4639;48.862;9.188;2024-02-15T02:12:43;11.80;99.90
9209;DHT22;4639;48.862;9.188;2024-02-15T02:15:09;11.70;99.90
9209;DHT22;4639;48.862;9.188;2024-02-15T02:17:36;11.60;99.90
9209;DHT22;4639;48.862;9.188;2024-02-15T02:20:02;11.50;99.90
9209;DHT22;4639;48.862;9.188;2024-02-15T02:22:34;11.40;99.90
9209;DHT22;4639;48.862;9.188;2024-02-15T02:25:08;11.30;99.90
9209;DHT22;4639;48.862;9.188;2024-02-15T02:27:34;11.30;99.90
9209;DHT22;4639;48.862;9.188;2024-02-15T02:30:03;11.30;99.90
9209;DHT22;4639;48.862;9.188;2024-02-15T02:32:32;11.30;99.90
9209;DHT22;4639;48.862;9.188;2024-02-15T02:34:59;11.30;99.90
9209;DHT22;4639;48.862;9.188;2024-02-15T02:37:25;11.20;99.90
9209;DHT22;4639;48.862;9.188;2024-02-15T02:39:51;11.20;99.90
9209;DHT22;4639;48.862;9.188;2024-02-15T02:42:17;11.10;99.90
9209;DHT22;4639;48.862;9.188;2024-02-15T02:44:42;11.10;99.90
9209;DHT22;4639;48.862;9.188;2024-02-15T02:47:08;11.20;99.90
9209;DHT22;4639;48.862;9.188;2024-02-15T02:49:35;11.20;99.90
9209;DHT22;4639;48.862;9.188;2024-02-15T02:52:01;11.20;99.90
9209;DHT22;4639;48.862;9.188;2024-02-15T02:54:26;11.10;99.90
9209;DHT22;4639;48.862;9.188;2024-02-15T02:56:53;11.00;99.90
9209;DHT22;4639;48.862;9.188;2024-02-15T02:59:19;11.10;99.90
9209;DHT22;4639;48.862;9.188;2024-02-15T03:01:45;11.10;99.90
9209;DHT22;4639;48.862;9.188;2024-02-15T03:04:10;11.00;99.90
9209;DHT22;4639;48.862;9.188;2024-02-15T03:06:37;11.00;99.90
9209;DHT22;4639;48.862;9.188;2024-02-15T03:09:03;11.00;99.90
9209;DHT22;4639;48.862;9.188;2024-02-15T03:11:32;11.00;99.90
9209;DHT22;4639;48.862;9.188;2024-02-15T03:13:59;10.90;99.90
9209;DHT22;4639;48.862;9.188;2024-02-15T03:16:25;10.80;99.90
9209;DHT22;4639;48.862;9.188;2024-02-15T03:18:51;10.80;99.90
9209;DHT22;4639;48.862;9.188;2024-02-15T03:21:18;10.90;99.90
9209;DHT22;4639;48.862;9.188;2024-02-15T03:23:44;11.10;99.90
9209;DHT22;4639;48.862;9.188;2024-02-15T03:26:09;10.80;99.90
9209;DHT22;4639;48.862;9.188;2024-02-15T03:28:36;10.80;99.90
9209;DHT22;4639;48.862;9.188;2024-02-15T03:31:03;10.70;99.90
9209;DHT22;4639;48.862;9.188;2024-02-15T03:33:28;10.80;99.90
9209;DHT22;4639;48.862;9.188;2024-02-15T03:35:59;10.70;99.90
9209;DHT22;4639;48.862;9.188;2024-02-15T03:38:27;10.80;99.90
9209;DHT22;4639;48.862;9.188;2024-02-15T03:40:55;10.90;99.90
9209;DHT22;4639;48.862;9.188;2024-02-15T03:43:21;10.80;99.90
9209;DHT22;4639;48.862;9.188;2024-02-15T03:45:46;10.90;99.90
9209;DHT22;4639;48.862;9.188;2024-02-15T03:48:12;10.80;99.90
9209;DHT22;4639;48.862;9.188;2024-02-15T03:50:38;10.80;99.90
9209;DHT22;4639;48.862;9.188;2024-02-15T03:53:04;10.90;99.90
9209;DHT22;4639;48.862;9.188;2024-02-15T03:55:29;10.80;99.90
9209;DHT22;4639;48.862;9.188;2024-02-15T03:57:55;10.90;99.90
9209;DHT22;4639;48.862;9.188;2024-02-15T04:00:21;11.00;99.90
9209;DHT22;4639;48.862;9.188;2024-02-15T04:02:47;11.00;99.90
9209;DHT22;4639;48.862;9.188;2024-02-15T04:05:15;11.00;99.90
9209;DHT22;4639;48.862;9.188;2024-02-15T04:07:44;11.00;99.90
9209;DHT22;4639;48.862;9.188;2024-02-15T04:10:10;10.90;99.90
9209;DHT22;4639;48.862;9.188;2024-02-15T04:12:36;10.90;99.90
9209;DHT22;4639;48.862;9.188;2024-02-15T04:15:03;10.90;99.90
9209;DHT22;4639;48.862;9.188;2024-02-15T04:17:37;11.00;99.90
9209;DHT22;4639;48.862;9.188;2024-02-15T04:20:04;11.00;99.90
9209;DHT22;4639;48.862;9.188;2024-02-15T04:22:33;11.00;99.90
9209;DHT22;4639;48.862;9.188;2024-02-15T04:25:05;10.90;99.90
9209;DHT22;4639;48.862;9.188;2024-02-15T04:27:32;10.90;99.90
9209;DHT22;4639;48.862;9.188;2024-02-15T04:29:57;11.00;99.90
9209;DHT22;4639;48.862;9.188;2024-02-15T04:32:23;10.90;99.90
9209;DHT22;4639;48.862;9.188;2024-02-15T04:34:48;10.90;99.90
9209;DHT22;4639;48.862;9.188;2024-02-15T04:37:14;10.90;99.90
9209;DHT22;4639;48.862;9.188;2024-02-15T04:39:40;10.80;99.90
9209;DHT22;4639;48.862;9.188;2024-02-15T04:42:06;10.80;99.90
9209;DHT22;4639;48.862;9.188;2024-02-15T04:44:35;10.80;99.90
9209;DHT22;4639;48.862;9.188;2024-02-15T04:47:03;10.80;99.90
9209;DHT22;4639;48.862;9.188;2024-02-15T04:49:29;10.80;99.90
9209;DHT22;4639;48.862;9.188;2024-02-15T04:51:55;10.80;99.90
9209;DHT22;4639;48.862;9.188;2024-02-15T04:54:22;10.80;99.90
9209;DHT22;4639;48.862;9.188;2024-02-15T04:56:48;11.00;99.90
9209;DHT22;4639;48.862;9.188;2024-02-15T04:59:16;10.80;99.90
9209;DHT22;4639;48.862;9.188;2024-02-15T05:01:42;10.90;99.90
9209;DHT22;4639;48.862;9.188;2024-02-15T05:04:11;10.90;99.90
9209;DHT22;4639;48.862;9.188;2024-02-15T05:06:37;10.90;99.90
9209;DHT22;4639;48.862;9.188;2024-02-15T05:09:03;10.90;99.90
9209;DHT22;4639;48.862;9.188;2024-02-15T05:11:39;11.00;99.90
9209;DHT22;4639;48.862;9.188;2024-02-15T05:14:07;11.00;99.90
9209;DHT22;4639;48.862;9.188;2024-02-15T05:16:34;11.00;99.90
9209;DHT22;4639;48.862;9.188;2024-02-15T05:18:59;11.00;99.90
9209;DHT22;4639;48.862;9.188;2024-02-15T05:21:25;11.20;99.90
9209;DHT22;4639;48.862;9.188;2024-02-15T05:23:51;11.20;99.90
9209;DHT22;4639;48.862;9.188;2024-02-15T05:26:18;11.30;99.90
9209;DHT22;4639;48.862;9.188;2024-02-15T05:28:51;11.30;99.90
9209;DHT22;4639;48.862;9.188;2024-02-15T05:31:18;11.40;99.90
9209;DHT22;4639;48.862;9.188;2024-02-15T05:33:49;11.50;99.90
9209;DHT22;4639;48.862;9.188;2024-02-15T05:36:16;11.70;99.90
9209;DHT22;4639;48.862;9.188;2024-02-15T05:38:42;11.60;99.90
9209;DHT22;4639;48.862;9.188;2024-02-15T05:41:10;11.50;99.90
9209;DHT22;4639;48.862;9.188;2024-02-15T05:43:39;11.50;99.90
9209;DHT22;4639;48.862;9.188;2024-02-15T05:46:05;11.50;99.90
9209;DHT22;4639;48.862;9.188;2024-02-15T05:48:34;11.40;99.90
9209;DHT22;4639;48.862;9.188;2024-02-15T05:51:01;11.40;99.90
9209;DHT22;4639;48.862;9.188;2024-02-15T05:53:27;11.40;99.90
9209;DHT22;4639;48.862;9.188;2024-02-15T05:55:53;11.40;99.90
9209;DHT22;4639;48.862;9.188;2024-02-15T05:58:18;11.30;99.90
9209;DHT22;4639;48.862;9.188;2024-02-15T06:00:44;11.30;99.90
9209;DHT22;4639;48.862;9.188;2024-02-15T06:03:10;11.30;99.90
9209;DHT22;4639;48.862;9.188;2024-02-15T06:05:39;11.40;99.90
9209;DHT22;4639;48.862;9.188;2024-02-15T06:08:05;11.40;99.90
9209;DHT22;4639;48.862;9.188;2024-02-15T06:10:31;11.40;99.90
9209;DHT22;4639;48.862;9.188;2024-02-15T06:12:57;11.30;99.90
9209;DHT22;4639;48.862;9.188;2024-02-15T06:15:25;11.30;99.90
9209;DHT22;4639;48.862;9.188;2024-02-15T06:17:52;11.40;99.90
9209;DHT22;4639;48.862;9.188;2024-02-15T06:20:18;11.40;99.90
9209;DHT22;4639;48.862;9.188;2024-02-15T06:22:45;11.50;99.90
9209;DHT22;4639;48.862;9.188;2024-02-15T06:25:11;11.50;99.90
9209;DHT22;4639;48.862;9.188;2024-02-15T06:27:38;11.50;99.90
9209;DHT22;4639;48.862;9.188;2024-02-15T06:30:12;11.40;99.90
9209;DHT22;4639;48.862;9.188;2024-02-15T06:32:57;11.40;99.90
9209;DHT22;4639;48.862;9.188;2024-02-15T06:35:41;11.40;99.90
9209;DHT22;4639;48.862;9.188;2024-02-15T06:38:25;11.40;99.90
9209;DHT22;4639;48.862;9.188;2024-02-15T06:41:10;11.40;99.90
9209;DHT22;4639;48.862;9.188;2024-02-15T06:43:36;11.40;99.90
9209;DHT22;4639;48.862;9.188;2024-02-15T06:46:02;11.50;99.90
9209;DHT22;4639;48.862;9.188;2024-02-15T06:48:28;11.50;99.90
9209;DHT22;4639;48.862;9.188;2024-02-15T06:50:54;11.50;99.90
9209;DHT22;4639;48.862;9.188;2024-02-15T06:53:20;11.30;99.90
9209;DHT22;4639;48.862;9.188;2024-02-15T06:55:48;11.30;99.90
9209;DHT22;4639;48.862;9.188;2024-02-15T06:58:15;11.40;99.90
9209;DHT22;4639;48.862;9.188;2024-02-15T07:00:42;11.40;99.90
9209;DHT22;4639;48.862;9.188;2024-02-15T07:03:08;11.50;99.90
9209;DHT22;4639;48.862;9.188;2024-02-15T07:05:34;11.50;99.90
9209;DHT22;4639;48.862;9.188;2024-02-15T07:08:00;11.60;99.90
9209;DHT22;4639;48.862;9.188;2024-02-15T07:10:26;11.60;99.90
9209;DHT22;4639;48.862;9.188;2024-02-15T07:12:52;11.70;99.90
9209;DHT22;4639;48.862;9.188;2024-02-15T07:15:17;11.60;99.90
9209;DHT22;4639;48.862;9.188;2024-02-15T07:17:43;11.50;99.90
9209;DHT22;4639;48.862;9.188;2024-02-15T07:20:11;11.50;99.90
9209;DHT22;4639;48.862;9.188;2024-02-15T07:22:37;11.50;99.90
9209;DHT22;4639;48.862;9.188;2024-02-15T07:25:04;11.50;99.90
9209;DHT22;4639;48.862;9.188;2024-02-15T07:27:30;11.50;99.90
9209;DHT22;4639;48.862;9.188;2024-02-15T07:29:55;11.50;99.90
9209;DHT22;4639;48.862;9.188;2024-02-15T07:32:21;11.60;99.90
9209;DHT22;4639;48.862;9.188;2024-02-15T07:34:47;11.60;99.90
9209;DHT22;4639;48.862;9.188;2024-02-15T07:37:13;11.60;99.90
9209;DHT22;4639;48.862;9.188;2024-02-15T07:39:41;11.70;99.90
9209;DHT22;4639;48.862;9.188;2024-02-15T07:42:07;11.80;99.90
9209;DHT22;4639;48.862;9.188;2024-02-15T07:44:34;12.00;99.90
9209;DHT22;4639;48.862;9.188;2024-02-15T07:47:02;12.30;99.90
9209;DHT22;4639;48.862;9.188;2024-02-15T07:49:28;12.40;99.90
9209;DHT22;4639;48.862;9.188;2024-02-15T07:51:53;12.60;99.90
9209;DHT22;4639;48.862;9.188;2024-02-15T07:54:19;12.70;99.90
9209;DHT22;4639;48.862;9.188;2024-02-15T07:56:49;12.60;99.90
9209;DHT22;4639;48.862;9.188;2024-02-15T07:59:15;12.60;99.90
9209;DHT22;4639;48.862;9.188;2024-02-15T08:01:44;12.70;99.90
9209;DHT22;4639;48.862;9.188;2024-02-15T08:04:13;12.80;99.90
9209;DHT22;4639;48.862;9.188;2024-02-15T08:06:38;12.60;99.90
9209;DHT22;4639;48.862;9.188;2024-02-15T08:09:04;12.60;99.90
9209;DHT22;4639;48.862;9.188;2024-02-15T08:11:32;12.80;99.90
9209;DHT22;4639;48.862;9.188;2024-02-15T08:13:58;13.10;99.90
9209;DHT22;4639;48.862;9.188;2024-02-15T08:16:26;13.20;99.90
9209;DHT22;4639;48.862;9.188;2024-02-15T08:18:55;13.30;99.90
9209;DHT22;4639;48.862;9.188;2024-02-15T08:21:27;13.40;99.90
9209;DHT22;4639;48.862;9.188;2024-02-15T08:24:00;13.40;99.90
9209;DHT22;4639;48.862;9.188;2024-02-15T08:26:26;13.40;99.90
9209;DHT22;4639;48.862;9.188;2024-02-15T08:28:52;13.20;99.90
9209;DHT22;4639;48.862;9.188;2024-02-15T08:31:18;13.00;99.90
9209;DHT22;4639;48.862;9.188;2024-02-15T08:33:45;13.00;99.90
9209;DHT22;4639;48.862;9.188;2024-02-15T08:36:11;13.20;99.90
9209;DHT22;4639;48.862;9.188;2024-02-15T08:38:38;12.90;99.90
9209;DHT22;4639;48.862;9.188;2024-02-15T08:41:04;13.00;99.90
9209;DHT22;4639;48.862;9.188;2024-02-15T08:43:30;13.20;99.90
9209;DHT22;4639;48.862;9.188;2024-02-15T08:45:59;13.30;99.90
9209;DHT22;4639;48.862;9.188;2024-02-15T08:48:25;13.30;99.90
9209;DHT22;4639;48.862;9.188;2024-02-15T08:50:51;13.30;99.90
9209;DHT22;4639;48.862;9.188;2024-02-15T08:53:17;13.20;99.90
9209;DHT22;4639;48.862;9.188;2024-02-15T08:55:45;13.20;99.90
9209;DHT22;4639;48.862;9.188;2024-02-15T08:58:10;13.30;99.90
9209;DHT22;4639;48.862;9.188;2024-02-15T09:00:36;13.30;99.90
9209;DHT22;4639;48.862;9.188;2024-02-15T09:03:03;13.30;99.90
9209;DHT22;4639;48.862;9.188;2024-02-15T09:05:28;13.10;99.90
9209;DHT22;4639;48.862;9.188;2024-02-15T09:07:54;13.00;99.90
9209;DHT22;4639;48.862;9.188;2024-02-15T09:10:20;13.00;99.90
9209;DHT22;4639;48.862;9.188;2024-02-15T09:12:48;13.00;99.90
9209;DHT22;4639;48.862;9.188;2024-02-15T09:15:15;13.00;99.90
9209;DHT22;4639;48.862;9.188;2024-02-15T09:17:41;13.20;99.90
9209;DHT22;4639;48.862;9.188;2024-02-15T09:20:07;13.30;99.90
9209;DHT22;4639;48.862;9.188;2024-02-15T09:22:34;13.50;99.90
9209;DHT22;4639;48.862;9.188;2024-02-15T09:25:02;14.10;99.90
9209;DHT22;4639;48.862;9.188;2024-02-15T09:27:27;14.00;99.90
9209;DHT22;4639;48.862;9.188;2024-02-15T09:29:53;14.30;99.90
9209;DHT22;4639;48.862;9.188;2024-02-15T09:32:18;14.30;99.90
9209;DHT22;4639;48.862;9.188;2024-02-15T09:34:44;14.60;99.90
9209;DHT22;4639;48.862;9.188;2024-02-15T09:37:09;15.00;99.90
9209;DHT22;4639;48.862;9.188;2024-02-15T09:39:37;15.20;99.90
9209;DHT22;4639;48.862;9.188;2024-02-15T09:42:03;15.60;99.90
9209;DHT22;4639;48.862;9.188;2024-02-15T09:44:29;15.70;99.90
9209;DHT22;4639;48.862;9.188;2024-02-15T09:47:04;15.60;99.90
9209;DHT22;4639;48.862;9.188;2024-02-15T09:49:37;15.80;99.90
9209;DHT22;4639;48.862;9.188;2024-02-15T09:52:06;16.10;99.90
9209;DHT22;4639;48.862;9.188;2024-02-15T09:54:33;16.10;99.90
9209;DHT22;4639;48.862;9.188;2024-02-15T09:57:01;15.70;99.90
9209;DHT22;4639;48.862;9.188;2024-02-15T09:59:27;15.60;99.90
9209;DHT22;4639;48.862;9.188;2024-02-15T10:01:56;15.90;99.90
9209;DHT22;4639;48.862;9.188;2024-02-15T10:04:24;16.30;99.90
9209;DHT22;4639;48.862;9.188;2024-02-15T10:06:51;16.80;99.90
9209;DHT22;4639;48.862;9.188;2024-02-15T10:09:24;17.10;99.90
9209;DHT22;4639;48.862;9.188;2024-02-15T10:12:00;16.80;99.90
9209;DHT22;4639;48.862;9.188;2024-02-15T10:14:28;17.10;99.90
9209;DHT22;4639;48.862;9.188;2024-02-15T10:16:54;17.50;99.90
9209;DHT22;4639;48.862;9.188;2024-02-15T10:19:21;17.50;99.90
9209;DHT22;4639;48.862;9.188;2024-02-15T10:21:53;17.90;99.90
9209;DHT22;4639;48.862;9.188;2024-02-15T10:24:23;18.40;99.90
9209;DHT22;4639;48.862;9.188;2024-02-15T10:27:00;18.80;99.90
9209;DHT22;4639;48.862;9.188;2024-02-15T10:29:29;18.90;99.90
9209;DHT22;4639;48.862;9.188;2024-02-15T10:31:57;18.80;99.90
9209;DHT22;4639;48.862;9.188;2024-02-15T10:34:24;18.90;99.90
9209;DHT22;4639;48.862;9.188;2024-02-15T10:37:10;19.20;99.90
9209;DHT22;4639;48.862;9.188;2024-02-15T10:39:36;19.00;99.90
9209;DHT22;4639;48.862;9.188;2024-02-15T10:42:03;18.80;99.90
9209;DHT22;4639;48.862;9.188;2024-02-15T10:44:31;18.90;99.90
9209;DHT22;4639;48.862;9.188;2024-02-15T10:46:59;18.90;99.90
9209;DHT22;4639;48.862;9.188;2024-02-15T10:49:26;19.00;99.90
9209;DHT22;4639;48.862;9.188;2024-02-15T10:55:10;19.10;99.90
9209;DHT22;4639;48.862;9.188;2024-02-15T10:57:20;19.00;99.90
9209;DHT22;4639;48.862;9.188;2024-02-15T11:00:06;19.20;99.90
9209;DHT22;4639;48.862;9.188;2024-02-15T11:02:42;19.10;99.90
9209;DHT22;4639;48.862;9.188;2024-02-15T11:05:10;19.20;99.90
9209;DHT22;4639;48.862;9.188;2024-02-15T11:07:39;19.30;99.90
9209;DHT22;4639;48.862;9.188;2024-02-15T11:10:06;19.50;99.90
9209;DHT22;4639;48.862;9.188;2024-02-15T11:12:36;19.50;99.90
9209;DHT22;4639;48.862;9.188;2024-02-15T11:15:02;19.70;99.90
9209;DHT22;4639;48.862;9.188;2024-02-15T11:20:08;20.60;99.90
9209;DHT22;4639;48.862;9.188;2024-02-15T11:22:35;20.60;99.90
9209;DHT22;4639;48.862;9.188;2024-02-15T11:25:05;20.20;99.90
9209;DHT22;4639;48.862;9.188;2024-02-15T11:27:42;20.20;99.90
9209;DHT22;4639;48.862;9.188;2024-02-15T11:30:07;19.90;99.90
9209;DHT22;4639;48.862;9.188;2024-02-15T11:43:07;20.20;99.90
9209;DHT22;4639;48.862;9.188;2024-02-15T11:45:34;19.90;99.90
9209;DHT22;4639;48.862;9.188;2024-02-15T11:48:07;19.60;99.90
9209;DHT22;4639;48.862;9.188;2024-02-15T11:50:36;19.40;99.90
9209;DHT22;4639;48.862;9.188;2024-02-15T11:53:04;19.20;99.90
9209;DHT22;4639;48.862;9.188;2024-02-15T11:55:39;18.90;99.90
9209;DHT22;4639;48.862;9.188;2024-02-15T11:58:07;18.90;99.90
9209;DHT22;4639;48.862;9.188;2024-02-15T12:00:36;19.00;99.90
9209;DHT22;4639;48.862;9.188;2024-02-15T12:03:21;18.80;99.90
9209;DHT22;4639;48.862;9.188;2024-02-15T12:06:06;18.60;99.90
9209;DHT22;4639;48.862;9.188;2024-02-15T12:08:52;18.50;99.90
9209;DHT22;4639;48.862;9.188;2024-02-15T12:11:36;18.50;99.90
9209;DHT22;4639;48.862;9.188;2024-02-15T12:14:20;18.50;99.90
9209;DHT22;4639;48.862;9.188;2024-02-15T12:17:06;18.60;99.90
9209;DHT22;4639;48.862;9.188;2024-02-15T12:19:51;18.80;99.90
9209;DHT22;4639;48.862;9.188;2024-02-15T12:22:32;19.20;99.90
9209;DHT22;4639;48.862;9.188;2024-02-15T12:25:00;19.40;99.90
9209;DHT22;4639;48.862;9.188;2024-02-15T12:27:27;19.40;99.90
9209;DHT22;4639;48.862;9.188;2024-02-15T12:29:57;19.30;99.90
9209;DHT22;4639;48.862;9.188;2024-02-15T12:32:24;19.30;99.90
9209;DHT22;4639;48.862;9.188;2024-02-15T12:34:51;19.20;99.90
9209;DHT22;4639;48.862;9.188;2024-02-15T12:37:20;19.00;99.90
9209;DHT22;4639;48.862;9.188;2024-02-15T12:39:49;19.00;99.90
9209;DHT22;4639;48.862;9.188;2024-02-15T12:42:16;19.00;99.90
9209;DHT22;4639;48.862;9.188;2024-02-15T12:44:46;19.30;99.90
9209;DHT22;4639;48.862;9.188;2024-02-15T12:47:22;19.00;99.90
9209;DHT22;4639;48.862;9.188;2024-02-15T12:50:13;18.90;99.90
9209;DHT22;4639;48.862;9.188;2024-02-15T12:52:39;18.80;99.90
9209;DHT22;4639;48.862;9.188;2024-02-15T12:57:38;18.90;99.90
9209;DHT22;4639;48.862;9.188;2024-02-15T13:00:09;19.00;99.90
9209;DHT22;4639;48.862;9.188;2024-02-15T13:02:44;19.00;99.90
9209;DHT22;4639;48.862;9.188;2024-02-15T13:05:09;18.90;99.90
9209;DHT22;4639;48.862;9.188;2024-02-15T13:07:36;18.80;99.90
9209;DHT22;4639;48.862;9.188;2024-02-15T13:10:03;18.90;99.90
9209;DHT22;4639;48.862;9.188;2024-02-15T13:12:35;18.70;99.90
9209;DHT22;4639;48.862;9.188;2024-02-15T13:15:03;18.60;99.90
9209;DHT22;4639;48.862;9.188;2024-02-15T13:17:29;18.40;99.90
9209;DHT22;4639;48.862;9.188;2024-02-15T13:19:55;18.40;99.90
9209;DHT22;4639;48.862;9.188;2024-02-15T13:22:28;18.20;99.90
9209;DHT22;4639;48.862;9.188;2024-02-15T13:24:54;18.10;99.90
9209;DHT22;4639;48.862;9.188;2024-02-15T13:27:21;18.10;99.90
9209;DHT22;4639;48.862;9.188;2024-02-15T13:29:48;18.00;99.90
9209;DHT22;4639;48.862;9.188;2024-02-15T13:32:14;17.80;99.90
9209;DHT22;4639;48.862;9.188;2024-02-15T13:34:42;17.80;99.90
9209;DHT22;4639;48.862;9.188;2024-02-15T13:37:08;17.90;99.90
9209;DHT22;4639;48.862;9.188;2024-02-15T13:39:33;17.90;99.90
9209;DHT22;4639;48.862;9.188;2024-02-15T13:42:02;17.90;99.90
9209;DHT22;4639;48.862;9.188;2024-02-15T13:44:27;17.90;99.90
9209;DHT22;4639;48.862;9.188;2024-02-15T13:46:57;17.90;99.90
9209;DHT22;4639;48.862;9.188;2024-02-15T13:49:22;17.90;99.90
9209;DHT22;4639;48.862;9.188;2024-02-15T13:51:48;18.00;99.90
9209;DHT22;4639;48.862;9.188;2024-02-15T13:54:14;18.10;99.90
9209;DHT22;4639;48.862;9.188;2024-02-15T13:56:40;18.10;99.90
9209;DHT22;4639;48.862;9.188;2024-02-15T13:59:08;18.00;99.90
9209;DHT22;4639;48.862;9.188;2024-02-15T14:01:34;18.10;99.90
9209;DHT22;4639;48.862;9.188;2024-02-15T14:03:59;18.00;99.90
9209;DHT22;4639;48.862;9.188;2024-02-15T14:06:25;18.00;99.90
9209;DHT22;4639;48.862;9.188;2024-02-15T14:08:51;17.80;99.90
9209;DHT22;4639;48.862;9.188;2024-02-15T14:11:16;18.10;99.90
9209;DHT22;4639;48.862;9.188;2024-02-15T14:13:43;18.00;99.90
9209;DHT22;4639;48.862;9.188;2024-02-15T14:16:08;18.00;99.90
9209;DHT22;4639;48.862;9.188;2024-02-15T14:18:34;18.00;99.90
9209;DHT22;4639;48.862;9.188;2024-02-15T14:21:00;17.90;99.90
9209;DHT22;4639;48.862;9.188;2024-02-15T14:23:26;18.00;99.90
9209;DHT22;4639;48.862;9.188;2024-02-15T14:25:53;17.80;99.90
9209;DHT22;4639;48.862;9.188;2024-02-15T14:28:19;17.80;99.90
9209;DHT22;4639;48.862;9.188;2024-02-15T14:30:45;18.10;99.90
9209;DHT22;4639;48.862;9.188;2024-02-15T14:33:29;18.00;99.90
9209;DHT22;4639;48.862;9.188;2024-02-15T14:35:55;18.10;99.90
9209;DHT22;4639;48.862;9.188;2024-02-15T14:38:21;18.10;99.90
9209;DHT22;4639;48.862;9.188;2024-02-15T14:40:49;18.00;99.90
9209;DHT22;4639;48.862;9.188;2024-02-15T14:43:26;17.90;99.90
9209;DHT22;4639;48.862;9.188;2024-02-15T14:45:52;17.90;99.90
9209;DHT22;4639;48.862;9.188;2024-02-15T14:48:21;17.90;99.90
9209;DHT22;4639;48.862;9.188;2024-02-15T14:50:49;17.90;99.90
9209;DHT22;4639;48.862;9.188;2024-02-15T14:53:16;17.80;99.90
9209;DHT22;4639;48.862;9.188;2024-02-15T14:55:43;17.90;99.90
9209;DHT22;4639;48.862;9.188;2024-02-15T14:58:12;17.80;99.90
9209;DHT22;4639;48.862;9.188;2024-02-15T15:00:39;17.90;99.90
9209;DHT22;4639;48.862;9.188;2024-02-15T15:03:07;17.90;99.90
9209;DHT22;4639;48.862;9.188;2024-02-15T15:05:32;17.90;99.90
9209;DHT22;4639;48.862;9.188;2024-02-15T15:08:16;18.00;99.90
9209;DHT22;4639;48.862;9.188;2024-02-15T15:11:02;18.00;99.90
9209;DHT22;4639;48.862;9.188;2024-02-15T15:13:46;18.10;99.90
9209;DHT22;4639;48.862;9.188;2024-02-15T15:16:11;18.00;99.90
9209;DHT22;4639;48.862;9.188;2024-02-15T15:18:40;18.00;99.90
9209;DHT22;4639;48.862;9.188;2024-02-15T15:21:06;18.10;99.90
9209;DHT22;4639;48.862;9.188;2024-02-15T15:23:32;18.20;99.90
9209;DHT22;4639;48.862;9.188;2024-02-15T15:26:00;18.20;99.90
9209;DHT22;4639;48.862;9.188;2024-02-15T15:28:26;18.10;99.90
9209;DHT22;4639;48.862;9.188;2024-02-15T15:30:52;18.20;99.90
9209;DHT22;4639;48.862;9.188;2024-02-15T15:33:18;18.10;99.90
9209;DHT22;4639;48.862;9.188;2024-02-15T15:35:44;18.00;99.90
9209;DHT22;4639;48.862;9.188;2024-02-15T15:38:10;18.10;99.90
9209;DHT22;4639;48.862;9.188;2024-02-15T15:40:36;18.00;99.90
9209;DHT22;4639;48.862;9.188;2024-02-15T15:43:02;18.00;99.90
9209;DHT22;4639;48.862;9.188;2024-02-15T15:45:32;18.00;99.90
9209;DHT22;4639;48.862;9.188;2024-02-15T15:47:58;18.00;99.90
9209;DHT22;4639;48.862;9.188;2024-02-15T15:50:26;18.00;99.90
9209;DHT22;4639;48.862;9.188;2024-02-15T15:52:54;17.90;99.90
9209;DHT22;4639;48.862;9.188;2024-02-15T15:55:19;17.90;99.90
9209;DHT22;4639;48.862;9.188;2024-02-15T15:57:45;17.90;99.90
9209;DHT22;4639;48.862;9.188;2024-02-15T16:00:12;17.90;99.90
9209;DHT22;4639;48.862;9.188;2024-02-15T16:02:41;17.80;99.90
9209;DHT22;4639;48.862;9.188;2024-02-15T16:05:15;17.90;99.90
9209;DHT22;4639;48.862;9.188;2024-02-15T16:07:44;17.80;99.90
9209;DHT22;4639;48.862;9.188;2024-02-15T16:10:11;17.90;99.90
9209;DHT22;4639;48.862;9.188;2024-02-15T16:12:42;17.80;99.90
9209;DHT22;4639;48.862;9.188;2024-02-15T16:15:09;17.80;99.90
9209;DHT22;4639;48.862;9.188;2024-02-15T16:17:36;17.70;99.90
9209;DHT22;4639;48.862;9.188;2024-02-15T16:20:05;17.60;99.90
9209;DHT22;4639;48.862;9.188;2024-02-15T16:22:37;17.50;99.90
9209;DHT22;4639;48.862;9.188;2024-02-15T16:25:06;17.40;99.90